PSU weather

Pangsuma Airport
Putussibau-Borneo Island, Kalimantan Barat, Indonesia

Public forecast

Using degrees Celsius for public forecast. Weather courtesy of forecast.io.

Closest aviation weather report (METAR) to Pangsuma Airport

Report is more than 6 hours old.

Closest report is Kapit Airport, 70.5 nm (130.6 km) N. Retrieved 2014/10/09 05:00 UTC (5 years ago):

WBGP 090500Z 02003KT 9999 SCT016 SCT150 BKN300 31/24 Q1010

Closest aviation forecast (TAF) to Pangsuma Airport

Closest forecast is Sibu Airport, 102.9 nm (190.6 km) NNW. Retrieved 2019/12/14 18:00 UTC (3 hours ago):

TAF WBGS 141700Z 1418/1518 VRB03KT 9999 FEW018 TEMPO 1423/1501 5000 RA FEW005 SCT016 TEMPO 1508/1512 3000 TSRA FEW015CB